createdAt,value
2022-08-26T00:02:11.271Z,99187.03
2022-08-26T00:05:12.932Z,99183.59
2022-08-26T00:08:15.325Z,99186.97
2022-08-26T00:11:26.840Z,99185.84
2022-08-26T00:14:30.946Z,99188.22
2022-08-26T00:17:33.292Z,99201.03
2022-08-26T00:20:34.993Z,99197.56
2022-08-26T00:23:37.164Z,99197.97
2022-08-26T00:26:39.323Z,99207.06
2022-08-26T00:29:43.076Z,99206.78
2022-08-26T00:32:46.365Z,99208.25
2022-08-26T00:35:48.138Z,99206.97
2022-08-26T00:38:49.849Z,99210.97
2022-08-26T00:41:51.504Z,99204.50
2022-08-26T00:44:53.634Z,99206.03
2022-08-26T00:47:56.748Z,99201.78
2022-08-26T00:50:59.226Z,99212.19
2022-08-26T00:54:03.622Z,99204.97
2022-08-26T00:57:08.611Z,99204.28
2022-08-26T01:00:19.794Z,99206.41
2022-08-26T01:03:22.747Z,99203.00
2022-08-26T01:06:24.955Z,99213.97
2022-08-26T01:09:27.532Z,99205.66
2022-08-26T01:12:30.055Z,99209.63
2022-08-26T01:15:35.532Z,99208.59
2022-08-26T01:18:37.174Z,99211.56
2022-08-26T01:21:41.479Z,99208.97
2022-08-26T01:24:43.302Z,99213.97
2022-08-26T01:27:44.876Z,99213.97
2022-08-26T01:30:52.998Z,99220.56
2022-08-26T01:33:57.677Z,99212.84
2022-08-26T01:37:05.429Z,99215.34
2022-08-26T01:40:08.315Z,99213.28
2022-08-26T01:43:14.680Z,99222.41
2022-08-26T01:46:16.336Z,99218.38
2022-08-26T01:49:18.127Z,99211.91
2022-08-26T01:52:21.414Z,99227.66
2022-08-26T01:55:32.598Z,99235.94
2022-08-26T01:58:37.008Z,99237.03
2022-08-26T02:01:38.670Z,99244.53
2022-08-26T02:04:41.736Z,99241.34
2022-08-26T02:07:44.118Z,99238.06
2022-08-26T02:10:45.745Z,99235.81
2022-08-26T02:14:07.950Z,99235.19
2022-08-26T02:17:10.518Z,99241.47
2022-08-26T02:20:15.011Z,99243.09
2022-08-26T02:23:17.013Z,99246.63
2022-08-26T02:26:20.766Z,99247.63
2022-08-26T02:29:25.116Z,99240.28
2022-08-26T02:32:27.156Z,99237.84
2022-08-26T02:35:28.754Z,99233.34
2022-08-26T02:38:32.162Z,99242.72
2022-08-26T02:41:33.992Z,99241.25
2022-08-26T02:44:35.807Z,99248.63
2022-08-26T02:47:37.506Z,99250.31
2022-08-26T02:50:39.506Z,99258.75
2022-08-26T02:53:41.172Z,99256.81
2022-08-26T02:56:44.514Z,99256.84
2022-08-26T02:59:46.122Z,99263.06
2022-08-26T03:02:48.109Z,99263.59
2022-08-26T03:05:51.318Z,99259.34
2022-08-26T03:08:52.939Z,99258.03
2022-08-26T03:11:55.580Z,99255.28
2022-08-26T03:14:57.609Z,99257.69
2022-08-26T03:17:59.970Z,99264.31
2022-08-26T03:21:11.862Z,99261.66
2022-08-26T03:24:13.725Z,99261.94
2022-08-26T03:27:15.563Z,99261.72
2022-08-26T03:30:37.933Z,99257.72
2022-08-26T03:33:40.717Z,99249.13
2022-08-26T03:36:42.278Z,99255.56
2022-08-26T03:39:44.881Z,99249.19
2022-08-26T03:42:46.446Z,99254.19
2022-08-26T03:45:48.036Z,99257.63
2022-08-26T03:48:49.610Z,99247.16
2022-08-26T03:51:51.589Z,99256.47
2022-08-26T03:54:53.384Z,99251.94
2022-08-26T03:57:54.986Z,99257.31
2022-08-26T04:00:56.905Z,99266.72
2022-08-26T04:04:00.424Z,99252.66
2022-08-26T04:07:02.346Z,99263.16
2022-08-26T04:10:04.287Z,99259.44
2022-08-26T04:13:06.471Z,99258.94
2022-08-26T04:16:08.144Z,99261.38
2022-08-26T04:19:12.748Z,99257.66
2022-08-26T04:22:14.342Z,99264.59
2022-08-26T04:25:25.580Z,99260.28
2022-08-26T04:28:27.485Z,99260.00
2022-08-26T04:31:29.148Z,99255.97
2022-08-26T04:34:32.833Z,99256.28
2022-08-26T04:37:35.214Z,99258.09
2022-08-26T04:40:36.886Z,99253.44
2022-08-26T04:43:41.990Z,99245.91
2022-08-26T04:46:43.941Z,99253.06
2022-08-26T04:49:45.758Z,99233.84
2022-08-26T04:52:47.398Z,99227.19
2022-08-26T04:55:49.227Z,99227.75
2022-08-26T04:58:56.819Z,99232.84
2022-08-26T05:01:59.689Z,99241.44
2022-08-26T05:05:01.465Z,99238.38
2022-08-26T05:08:03.167Z,99246.91
2022-08-26T05:11:05.385Z,99254.47
2022-08-26T05:14:07.438Z,99262.50
2022-08-26T05:17:09.393Z,99265.84
2022-08-26T05:20:16.430Z,99265.13
2022-08-26T05:23:19.613Z,99257.91
2022-08-26T05:26:23.045Z,99263.25
2022-08-26T05:29:25.234Z,99257.69
2022-08-26T05:32:27.506Z,99256.28
2022-08-26T05:35:34.326Z,99254.84
2022-08-26T05:38:35.882Z,99263.72
2022-08-26T05:41:38.595Z,99265.75
2022-08-26T05:44:55.653Z,99251.25
2022-08-26T05:47:57.899Z,99252.78
2022-08-26T05:51:02.096Z,99245.47
2022-08-26T05:54:03.837Z,99258.78
2022-08-26T05:57:05.618Z,99259.50
2022-08-26T06:00:07.929Z,99265.09
2022-08-26T06:03:13.794Z,99269.34
2022-08-26T06:06:19.976Z,99275.78
2022-08-26T06:09:22.423Z,99274.44
2022-08-26T06:12:25.111Z,99270.25
2022-08-26T06:15:31.800Z,99270.13
2022-08-26T06:18:36.307Z,99277.31
2022-08-26T06:21:39.341Z,99288.78
2022-08-26T06:24:59.580Z,99273.69
2022-08-26T06:28:01.630Z,99270.13
2022-08-26T06:31:06.239Z,99275.38
2022-08-26T06:34:10.739Z,99273.38
2022-08-26T06:37:13.486Z,99270.78
2022-08-26T06:40:15.708Z,99272.84
2022-08-26T06:43:18.480Z,99273.06
2022-08-26T06:46:21.708Z,99275.03
2022-08-26T06:49:27.161Z,99268.50
2022-08-26T06:52:29.265Z,99269.97
2022-08-26T06:55:51.908Z,99274.59
2022-08-26T06:58:53.879Z,99277.94
2022-08-26T07:01:57.562Z,99277.97
2022-08-26T07:05:04.934Z,99287.66
2022-08-26T07:08:06.614Z,99290.19
2022-08-26T07:11:08.854Z,99287.97
2022-08-26T07:14:10.743Z,99295.81
2022-08-26T07:17:14.008Z,99296.91
2022-08-26T07:20:16.505Z,99307.88
2022-08-26T07:23:18.936Z,99297.13
2022-08-26T07:26:26.820Z,99303.06
2022-08-26T07:29:30.418Z,99295.81
2022-08-26T07:32:32.822Z,99302.66
2022-08-26T07:35:34.586Z,99304.59
2022-08-26T07:38:36.613Z,99303.19
2022-08-26T07:41:38.223Z,99302.09
2022-08-26T07:44:40.967Z,99295.03
2022-08-26T07:47:42.821Z,99305.88
2022-08-26T07:50:49.483Z,99300.91
2022-08-26T07:53:53.195Z,99295.91
2022-08-26T07:56:55.130Z,99304.38
2022-08-26T07:59:58.057Z,99307.25
2022-08-26T08:03:00.445Z,99306.28
2022-08-26T08:06:02.070Z,99309.44
2022-08-26T08:09:03.962Z,99310.50
2022-08-26T08:12:06.736Z,99297.94
2022-08-26T08:15:09.010Z,99296.00
2022-08-26T08:18:15.825Z,99298.41
2022-08-26T08:21:21.974Z,99295.63
2022-08-26T08:24:25.347Z,99302.25
2022-08-26T08:27:27.201Z,99313.38
2022-08-26T08:30:29.131Z,99305.72
2022-08-26T08:33:31.344Z,99314.09
2022-08-26T08:36:35.912Z,99304.44
2022-08-26T08:39:37.878Z,99312.72
2022-08-26T08:42:59.298Z,99305.56
2022-08-26T08:46:03.701Z,99304.19
2022-08-26T08:49:05.984Z,99295.34
2022-08-26T08:52:11.410Z,99297.88
2022-08-26T08:55:17.373Z,99301.44
2022-08-26T08:58:20.777Z,99303.56
2022-08-26T09:01:25.649Z,99308.03
2022-08-26T09:04:30.437Z,99300.78
2022-08-26T09:07:38.797Z,99303.94
2022-08-26T09:10:50.951Z,99307.75
2022-08-26T09:13:53.461Z,99296.19
2022-08-26T09:17:02.507Z,99304.09
2022-08-26T09:20:04.378Z,99297.78
2022-08-26T09:23:06.056Z,99295.06
2022-08-26T09:26:29.092Z,99289.53
2022-08-26T09:29:33.966Z,99294.69
2022-08-26T09:32:36.359Z,99285.03
2022-08-26T09:35:39.049Z,99290.53
2022-08-26T09:38:41.476Z,99283.69
2022-08-26T09:41:43.734Z,99289.38
2022-08-26T09:44:55.945Z,99285.53
2022-08-26T09:48:01.377Z,99284.00
2022-08-26T09:51:07.081Z,99282.78
2022-08-26T09:54:09.305Z,99281.84
2022-08-26T09:57:16.702Z,99286.03
2022-08-26T10:00:26.813Z,99288.06
2022-08-26T10:03:33.066Z,99288.25
2022-08-26T10:06:38.273Z,99287.41
2022-08-26T10:09:40.610Z,99286.28
2022-08-26T10:12:44.963Z,99292.00
2022-08-26T10:15:52.516Z,99293.53
2022-08-26T10:19:08.752Z,99289.03
2022-08-26T10:22:12.504Z,99290.28
2022-08-26T10:25:16.337Z,99289.81
2022-08-26T10:28:20.763Z,99288.19
2022-08-26T10:31:28.556Z,99291.81
2022-08-26T10:34:31.473Z,99285.47
2022-08-26T10:37:36.569Z,99290.97
2022-08-26T10:40:44.348Z,99288.59
2022-08-26T10:43:45.938Z,99291.91
2022-08-26T10:46:54.443Z,99295.97
2022-08-26T10:50:00.436Z,99292.09
2022-08-26T10:53:08.677Z,99283.56
2022-08-26T10:56:19.209Z,99286.75
2022-08-26T10:59:20.924Z,99281.75
2022-08-26T11:02:47.164Z,99276.69
2022-08-26T11:06:09.148Z,99275.44
2022-08-26T11:09:10.767Z,99276.88
2022-08-26T11:12:31.096Z,99280.84
2022-08-26T11:15:40.056Z,99279.50
2022-08-26T11:18:42.636Z,99282.56
2022-08-26T11:22:02.500Z,99267.78
2022-08-26T11:25:06.558Z,99263.81
2022-08-26T11:28:09.208Z,99271.72
2022-08-26T11:31:12.873Z,99265.94
2022-08-26T11:34:14.596Z,99268.69
2022-08-26T11:37:16.367Z,99267.41
2022-08-26T11:40:20.639Z,99263.66
2022-08-26T11:43:23.986Z,99265.84
2022-08-26T11:46:27.467Z,99259.41
2022-08-26T11:49:29.600Z,99262.97
2022-08-26T11:52:31.289Z,99257.25
2022-08-26T11:55:34.973Z,99260.13
2022-08-26T11:58:36.842Z,99259.41
2022-08-26T12:01:40.289Z,99260.94
2022-08-26T12:04:42.471Z,99268.28
2022-08-26T12:07:44.503Z,99269.38
2022-08-26T12:10:46.513Z,99249.28
2022-08-26T12:14:15.524Z,99249.53
2022-08-26T12:17:19.371Z,99253.09
2022-08-26T12:20:31.080Z,99258.88
2022-08-26T12:23:36.545Z,99253.03
2022-08-26T12:26:43.416Z,99248.44
2022-08-26T12:29:48.499Z,99250.63
2022-08-26T12:32:58.787Z,99254.88
2022-08-26T12:36:02.090Z,99249.41
2022-08-26T12:39:08.477Z,99254.31
2022-08-26T12:42:13.621Z,99253.25
2022-08-26T12:45:15.276Z,99253.13
2022-08-26T12:48:21.701Z,99246.50
2022-08-26T12:51:27.160Z,99247.03
2022-08-26T12:54:49.553Z,99246.91
2022-08-26T12:58:10.112Z,99245.25
2022-08-26T13:01:12.666Z,99242.66
2022-08-26T13:04:33.491Z,99236.47
2022-08-26T13:07:35.412Z,99233.16
2022-08-26T13:10:37.987Z,99232.31
2022-08-26T13:13:40.263Z,99225.75
2022-08-26T13:16:41.949Z,99234.97
2022-08-26T13:19:43.743Z,99246.84
2022-08-26T13:22:45.345Z,99241.75
2022-08-26T13:25:55.544Z,99240.38
2022-08-26T13:29:01.716Z,99228.66
2022-08-26T13:32:04.839Z,99233.22
2022-08-26T13:35:06.737Z,99229.94
2022-08-26T13:38:14.716Z,99224.03
2022-08-26T13:41:34.665Z,99230.97
2022-08-26T13:44:39.013Z,99227.41
2022-08-26T13:47:41.170Z,99230.06
2022-08-26T13:50:43.326Z,99230.69
2022-08-26T13:53:45.042Z,99232.56
2022-08-26T13:56:47.281Z,99225.19
2022-08-26T13:59:50.054Z,99229.03
2022-08-26T14:02:51.722Z,99225.22
2022-08-26T14:05:58.584Z,99221.19
2022-08-26T14:09:01.434Z,99226.16
2022-08-26T14:12:03.320Z,99221.31
2022-08-26T14:15:05.160Z,99220.63
2022-08-26T14:18:08.703Z,99208.28
2022-08-26T14:21:12.045Z,99216.50
2022-08-26T14:24:13.857Z,99214.50
2022-08-26T14:27:15.745Z,99215.88
2022-08-26T14:30:17.561Z,99221.47
2022-08-26T14:33:20.119Z,99215.84
2022-08-26T14:36:34.088Z,99221.88
2022-08-26T14:39:35.752Z,99220.16
2022-08-26T14:42:37.324Z,99213.19
2022-08-26T14:48:44.850Z,99224.97
2022-08-26T14:51:46.679Z,99224.84
2022-08-26T14:54:48.309Z,99221.69
2022-08-26T14:57:56.974Z,99226.09
2022-08-26T15:00:58.630Z,99223.16
2022-08-26T15:04:05.841Z,99228.16
2022-08-26T15:07:07.557Z,99223.41
2022-08-26T15:10:11.404Z,99217.88
2022-08-26T15:13:13.024Z,99217.75
2022-08-26T15:16:14.885Z,99212.31
2022-08-26T15:19:17.009Z,99203.16
2022-08-26T15:22:18.705Z,99206.63
2022-08-26T15:25:20.712Z,99203.94
2022-08-26T15:28:23.110Z,99211.66
2022-08-26T15:31:25.802Z,99207.69
2022-08-26T15:34:27.570Z,99215.03
2022-08-26T15:37:29.201Z,99213.34
2022-08-26T15:40:30.986Z,99207.59
2022-08-26T15:43:32.751Z,99207.09
2022-08-26T15:46:34.746Z,99203.59
2022-08-26T15:49:38.650Z,99208.66
2022-08-26T15:52:40.294Z,99209.63
2022-08-26T15:55:41.858Z,99210.59
2022-08-26T15:58:43.513Z,99204.16
2022-08-26T16:01:46.514Z,99204.09
2022-08-26T16:04:48.312Z,99203.81
2022-08-26T16:07:49.923Z,99198.06
2022-08-26T16:10:51.596Z,99202.44
2022-08-26T16:13:53.349Z,99202.25
2022-08-26T16:16:54.950Z,99189.69
2022-08-26T16:19:56.549Z,99198.16
2022-08-26T16:22:58.427Z,99199.59
2022-08-26T16:26:00.024Z,99202.38
2022-08-26T16:29:02.658Z,99193.25
2022-08-26T16:32:08.662Z,99190.44
2022-08-26T16:35:10.277Z,99187.66
2022-08-26T16:38:11.893Z,99180.72
2022-08-26T16:41:13.539Z,99187.84
2022-08-26T16:44:15.151Z,99183.75
2022-08-26T16:47:17.994Z,99183.34
2022-08-26T16:50:20.458Z,99185.09
2022-08-26T16:53:22.166Z,99189.16
2022-08-26T16:56:33.416Z,99183.94
2022-08-26T16:59:36.091Z,99189.72
2022-08-26T17:02:37.792Z,99187.03
2022-08-26T17:05:40.324Z,99185.94
2022-08-26T17:08:42.098Z,99185.41
2022-08-26T17:11:43.915Z,99197.44
2022-08-26T17:14:45.793Z,99200.66
2022-08-26T17:17:47.477Z,99189.75
2022-08-26T17:20:49.194Z,99187.97
2022-08-26T17:23:51.991Z,99189.22
2022-08-26T17:26:55.735Z,99191.75
2022-08-26T17:29:57.529Z,99195.66
2022-08-26T17:32:59.141Z,99195.03
2022-08-26T17:36:01.565Z,99198.34
2022-08-26T17:39:03.797Z,99193.63
2022-08-26T17:42:05.596Z,99181.28
2022-08-26T17:45:07.784Z,99185.66
2022-08-26T17:48:10.587Z,99176.53
2022-08-26T17:51:13.428Z,99179.38
2022-08-26T17:54:15.298Z,99181.34
2022-08-26T17:57:16.929Z,99191.94
2022-08-26T18:00:21.554Z,99199.81
2022-08-26T18:03:23.586Z,99205.47
2022-08-26T18:06:25.619Z,99206.84
2022-08-26T18:09:29.362Z,99203.03
2022-08-26T18:12:31.606Z,99205.63
2022-08-26T18:15:33.349Z,99199.66
2022-08-26T18:18:35.366Z,99207.19
2022-08-26T18:21:37.057Z,99202.66
2022-08-26T18:24:38.699Z,99201.88
2022-08-26T18:27:40.277Z,99206.19
2022-08-26T18:30:42.451Z,99208.63
2022-08-26T18:33:44.254Z,99205.47
2022-08-26T18:36:45.969Z,99208.63
2022-08-26T18:39:47.593Z,99209.91
2022-08-26T18:42:54.104Z,99208.78
2022-08-26T18:46:06.105Z,99211.97
2022-08-26T18:49:08.385Z,99220.84
2022-08-26T18:52:10.182Z,99221.91
2022-08-26T18:55:12.905Z,99217.03
2022-08-26T18:58:16.399Z,99223.66
2022-08-26T19:01:18.589Z,99227.78
2022-08-26T19:04:20.587Z,99230.63
2022-08-26T19:07:22.506Z,99226.66
2022-08-26T19:10:24.860Z,99230.75
2022-08-26T19:13:27.032Z,99236.47
2022-08-26T19:16:29.110Z,99233.28
2022-08-26T19:19:31.700Z,99238.34
2022-08-26T19:22:33.461Z,99242.59
2022-08-26T19:25:42.105Z,99241.75
2022-08-26T19:28:44.199Z,99242.53
2022-08-26T19:31:46.420Z,99247.81
2022-08-26T19:34:54.899Z,99245.28
2022-08-26T19:37:57.178Z,99240.97
2022-08-26T19:40:58.953Z,99253.31
2022-08-26T19:44:05.472Z,99254.88
2022-08-26T19:47:07.987Z,99258.19
2022-08-26T19:50:11.554Z,99260.38
2022-08-26T19:53:13.282Z,99261.81
2022-08-26T19:56:15.329Z,99264.97
2022-08-26T19:59:17.784Z,99260.72
2022-08-26T20:02:19.703Z,99272.78
2022-08-26T20:05:22.080Z,99276.44
2022-08-26T20:08:23.714Z,99274.53
2022-08-26T20:11:25.759Z,99271.06
2022-08-26T20:14:27.488Z,99277.25
2022-08-26T20:17:29.065Z,99278.97
2022-08-26T20:20:49.341Z,99279.44
2022-08-26T20:23:51.675Z,99283.09
2022-08-26T20:26:53.411Z,99280.09
2022-08-26T20:29:55.486Z,99285.16
2022-08-26T20:32:57.467Z,99283.88
2022-08-26T20:35:59.378Z,99282.16
2022-08-26T20:39:01.123Z,99278.69
2022-08-26T20:42:03.558Z,99282.84
2022-08-26T20:45:06.907Z,99282.84
2022-08-26T20:48:08.898Z,99286.63
2022-08-26T20:51:10.821Z,99287.50
2022-08-26T20:54:13.150Z,99290.47
2022-08-26T20:57:14.776Z,99292.59
2022-08-26T21:00:18.225Z,99290.44
2022-08-26T21:03:21.682Z,99294.31
2022-08-26T21:06:23.485Z,99298.50
2022-08-26T21:09:25.818Z,99296.56
2022-08-26T21:12:27.441Z,99305.09
2022-08-26T21:15:29.680Z,99305.78
2022-08-26T21:18:33.044Z,99304.56
2022-08-26T21:21:34.872Z,99305.06
2022-08-26T21:24:36.502Z,99305.84
2022-08-26T21:27:38.294Z,99304.94
2022-08-26T21:30:40.227Z,99307.69
2022-08-26T21:33:42.012Z,99304.06
2022-08-26T21:36:43.937Z,99319.78
2022-08-26T21:39:45.505Z,99314.47
2022-08-26T21:42:47.084Z,99317.28
2022-08-26T21:45:49.645Z,99325.41
2022-08-26T21:48:55.072Z,99321.81
2022-08-26T21:51:56.634Z,99322.72
2022-08-26T21:54:59.227Z,99323.03
2022-08-26T21:58:01.049Z,99319.06
2022-08-26T22:01:02.754Z,99329.44
2022-08-26T22:04:06.874Z,99329.06
2022-08-26T22:07:08.449Z,99324.41
2022-08-26T22:10:10.289Z,99329.69
2022-08-26T22:13:11.943Z,99326.31
2022-08-26T22:16:29.524Z,99335.78
2022-08-26T22:19:32.024Z,99336.88
2022-08-26T22:22:35.820Z,99329.94
2022-08-26T22:25:37.491Z,99337.19
2022-08-26T22:28:39.417Z,99337.47
2022-08-26T22:31:43.796Z,99335.91
2022-08-26T22:34:45.992Z,99330.72
2022-08-26T22:37:47.589Z,99336.88
2022-08-26T22:40:51.001Z,99336.28
2022-08-26T22:43:52.912Z,99326.72
2022-08-26T22:46:54.506Z,99330.19
2022-08-26T22:50:01.938Z,99321.63
2022-08-26T22:53:04.352Z,99326.31
2022-08-26T22:56:06.318Z,99328.94
2022-08-26T22:59:10.265Z,99324.16
2022-08-26T23:02:12.092Z,99323.38
2022-08-26T23:05:14.551Z,99324.94
2022-08-26T23:08:16.593Z,99326.56
2022-08-26T23:11:19.171Z,99329.41
2022-08-26T23:14:20.739Z,99326.94
2022-08-26T23:17:22.299Z,99329.25
2022-08-26T23:20:23.905Z,99326.16
2022-08-26T23:23:27.568Z,99326.88
2022-08-26T23:26:29.163Z,99322.97
2022-08-26T23:29:30.725Z,99328.94
2022-08-26T23:32:32.290Z,99328.94
2022-08-26T23:35:33.841Z,99322.19
2022-08-26T23:38:35.397Z,99327.25
2022-08-26T23:41:38.397Z,99332.06
2022-08-26T23:44:39.939Z,99332.44
2022-08-26T23:47:41.507Z,99324.59
2022-08-26T23:51:18.509Z,99324.88
2022-08-26T23:54:20.137Z,99327.97
2022-08-26T23:57:22.842Z,99325.28
